Terminal Aerodrome Forecast
Issued by NWS

Home | Current Version | Previous Version | Text Only | Print | Product List | Glossary On
Versions: 1 2 3 4 5 6 7 8 9 10 11 12 13 14 15 16 17
786
FTUS45 KRIW 281122
TAFRKS
TAF
KRKS 281122Z 2812/0112 26010KT P6SM SCT020 SCT050
     FM281800 27018G30KT P6SM VCSH SCT040 BKN080
     FM010300 26020G30KT P6SM BKN050=

USA.gov is the U.S. government's official web portal to all federal, state and local government web resources and services.